sensor_id;sensor_type;location;lat;lon;timestamp;temperature;humidity
46816;DHT22;32787;53.316;8.670;2023-04-03T00:01:27;0.20;86.10
46816;DHT22;32787;53.316;8.670;2023-04-03T00:03:52;0.00;86.50
46816;DHT22;32787;53.316;8.670;2023-04-03T00:06:18;0.00;86.60
46816;DHT22;32787;53.316;8.670;2023-04-03T00:08:44;0.00;86.80
46816;DHT22;32787;53.316;8.670;2023-04-03T00:11:10;-3276.60;87.10
46816;DHT22;32787;53.316;8.670;2023-04-03T00:13:35;-3276.50;87.10
46816;DHT22;32787;53.316;8.670;2023-04-03T00:16:01;-3276.50;87.20
46816;DHT22;32787;53.316;8.670;2023-04-03T00:18:29;-3276.40;87.30
46816;DHT22;32787;53.316;8.670;2023-04-03T00:20:54;-3276.40;87.70
46816;DHT22;32787;53.316;8.670;2023-04-03T00:23:20;-3276.30;87.70
46816;DHT22;32787;53.316;8.670;2023-04-03T00:25:46;-3276.20;88.20
46816;DHT22;32787;53.316;8.670;2023-04-03T00:28:12;-3276.10;88.50
46816;DHT22;32787;53.316;8.670;2023-04-03T00:30:38;-3276.00;88.90
46816;DHT22;32787;53.316;8.670;2023-04-03T00:33:04;-3275.90;89.20
46816;DHT22;32787;53.316;8.670;2023-04-03T00:35:30;-3275.90;89.50
46816;DHT22;32787;53.316;8.670;2023-04-03T00:37:55;-3276.00;89.60
46816;DHT22;32787;53.316;8.670;2023-04-03T00:40:24;-3276.10;89.70
46816;DHT22;32787;53.316;8.670;2023-04-03T00:42:58;-3276.30;89.50
46816;DHT22;32787;53.316;8.670;2023-04-03T00:45:38;-3276.30;89.30
46816;DHT22;32787;53.316;8.670;2023-04-03T00:48:05;-3276.50;88.90
46816;DHT22;32787;53.316;8.670;2023-04-03T00:50:34;-3276.50;88.40
46816;DHT22;32787;53.316;8.670;2023-04-03T00:53:01;-3276.50;88.30
46816;DHT22;32787;53.316;8.670;2023-04-03T00:55:27;-3276.40;87.90
46816;DHT22;32787;53.316;8.670;2023-04-03T00:57:54;-3276.30;88.10
46816;DHT22;32787;53.316;8.670;2023-04-03T01:00:21;-3276.30;88.40
46816;DHT22;32787;53.316;8.670;2023-04-03T01:02:48;-3276.20;88.40
46816;DHT22;32787;53.316;8.670;2023-04-03T01:05:16;-3276.10;88.60
46816;DHT22;32787;53.316;8.670;2023-04-03T01:07:42;-3276.10;88.80
46816;DHT22;32787;53.316;8.670;2023-04-03T01:10:10;-3276.00;89.10
46816;DHT22;32787;53.316;8.670;2023-04-03T01:12:41;-3275.90;89.30
46816;DHT22;32787;53.316;8.670;2023-04-03T01:15:13;-3275.90;89.50
46816;DHT22;32787;53.316;8.670;2023-04-03T01:17:40;-3275.90;89.70
46816;DHT22;32787;53.316;8.670;2023-04-03T01:25:24;-3276.10;89.60
46816;DHT22;32787;53.316;8.670;2023-04-03T01:27:50;-3276.10;89.50
46816;DHT22;32787;53.316;8.670;2023-04-03T01:30:18;-3275.90;89.40
46816;DHT22;32787;53.316;8.670;2023-04-03T01:32:45;-3276.00;89.50
46816;DHT22;32787;53.316;8.670;2023-04-03T01:35:11;-3275.90;89.60
46816;DHT22;32787;53.316;8.670;2023-04-03T01:37:37;-3275.90;89.60
46816;DHT22;32787;53.316;8.670;2023-04-03T01:40:03;-3275.90;89.70
46816;DHT22;32787;53.316;8.670;2023-04-03T01:42:29;-3275.90;89.70
46816;DHT22;32787;53.316;8.670;2023-04-03T01:44:55;-3275.90;89.70
46816;DHT22;32787;53.316;8.670;2023-04-03T01:47:21;-3275.90;89.70
46816;DHT22;32787;53.316;8.670;2023-04-03T01:49:46;-3275.80;89.70
46816;DHT22;32787;53.316;8.670;2023-04-03T01:52:12;-3275.80;89.90
46816;DHT22;32787;53.316;8.670;2023-04-03T01:54:38;-3275.70;90.10
46816;DHT22;32787;53.316;8.670;2023-04-03T01:57:04;-3275.60;90.20
46816;DHT22;32787;53.316;8.670;2023-04-03T01:59:30;-3275.70;90.30
46816;DHT22;32787;53.316;8.670;2023-04-03T02:01:55;-3275.80;90.40
46816;DHT22;32787;53.316;8.670;2023-04-03T02:04:21;-3275.80;90.00
46816;DHT22;32787;53.316;8.670;2023-04-03T02:06:47;-3275.70;90.00
46816;DHT22;32787;53.316;8.670;2023-04-03T02:09:13;-3275.60;90.20
46816;DHT22;32787;53.316;8.670;2023-04-03T02:11:39;-3275.60;90.30
46816;DHT22;32787;53.316;8.670;2023-04-03T02:14:04;-3275.60;90.50
46816;DHT22;32787;53.316;8.670;2023-04-03T02:16:30;-3275.70;90.30
46816;DHT22;32787;53.316;8.670;2023-04-03T02:18:56;-3275.50;90.30
46816;DHT22;32787;53.316;8.670;2023-04-03T02:21:22;-3275.60;90.50
46816;DHT22;32787;53.316;8.670;2023-04-03T02:23:47;-3275.70;90.50
46816;DHT22;32787;53.316;8.670;2023-04-03T02:26:14;-3275.60;90.40
46816;DHT22;32787;53.316;8.670;2023-04-03T02:28:40;-3275.60;90.40
46816;DHT22;32787;53.316;8.670;2023-04-03T02:31:06;-3275.50;90.40
46816;DHT22;32787;53.316;8.670;2023-04-03T02:33:33;-3275.50;90.60
46816;DHT22;32787;53.316;8.670;2023-04-03T02:36:00;-3275.50;90.60
46816;DHT22;32787;53.316;8.670;2023-04-03T02:38:25;-3275.40;90.50
46816;DHT22;32787;53.316;8.670;2023-04-03T02:40:51;-3275.30;90.60
46816;DHT22;32787;53.316;8.670;2023-04-03T02:43:17;-3275.20;90.80
46816;DHT22;32787;53.316;8.670;2023-04-03T02:45:43;-3275.20;90.90
46816;DHT22;32787;53.316;8.670;2023-04-03T02:48:09;-3275.10;91.00
46816;DHT22;32787;53.316;8.670;2023-04-03T02:50:35;-3275.10;91.20
46816;DHT22;32787;53.316;8.670;2023-04-03T02:53:00;-3275.10;91.20
46816;DHT22;32787;53.316;8.670;2023-04-03T02:55:26;-3275.20;91.10
46816;DHT22;32787;53.316;8.670;2023-04-03T02:57:52;-3275.20;91.10
46816;DHT22;32787;53.316;8.670;2023-04-03T03:00:17;-3275.30;91.10
46816;DHT22;32787;53.316;8.670;2023-04-03T03:02:43;-3275.30;91.00
46816;DHT22;32787;53.316;8.670;2023-04-03T03:05:09;-3275.20;91.00
46816;DHT22;32787;53.316;8.670;2023-04-03T03:07:34;-3275.10;90.90
46816;DHT22;32787;53.316;8.670;2023-04-03T03:10:00;-3275.00;91.00
46816;DHT22;32787;53.316;8.670;2023-04-03T03:12:26;-3274.90;91.00
46816;DHT22;32787;53.316;8.670;2023-04-03T03:14:51;-3274.80;91.10
46816;DHT22;32787;53.316;8.670;2023-04-03T03:17:17;-3274.80;91.20
46816;DHT22;32787;53.316;8.670;2023-04-03T03:19:43;-3275.00;91.30
46816;DHT22;32787;53.316;8.670;2023-04-03T03:22:09;-3274.90;91.30
46816;DHT22;32787;53.316;8.670;2023-04-03T03:24:34;-3274.90;91.30
46816;DHT22;32787;53.316;8.670;2023-04-03T03:27:00;-3275.10;91.40
46816;DHT22;32787;53.316;8.670;2023-04-03T03:29:26;-3275.20;91.30
46816;DHT22;32787;53.316;8.670;2023-04-03T03:31:51;-3275.20;91.10
46816;DHT22;32787;53.316;8.670;2023-04-03T03:34:17;-3275.10;90.80
46816;DHT22;32787;53.316;8.670;2023-04-03T03:36:43;-3275.00;90.60
46816;DHT22;32787;53.316;8.670;2023-04-03T03:39:09;-3274.80;90.60
46816;DHT22;32787;53.316;8.670;2023-04-03T03:41:35;-3274.80;90.70
46816;DHT22;32787;53.316;8.670;2023-04-03T03:44:00;-3274.70;90.80
46816;DHT22;32787;53.316;8.670;2023-04-03T03:46:26;-3274.60;90.90
46816;DHT22;32787;53.316;8.670;2023-04-03T03:48:52;-3274.60;90.90
46816;DHT22;32787;53.316;8.670;2023-04-03T03:51:17;-3274.50;91.00
46816;DHT22;32787;53.316;8.670;2023-04-03T03:53:43;-3274.50;91.10
46816;DHT22;32787;53.316;8.670;2023-04-03T03:56:09;-3274.50;91.20
46816;DHT22;32787;53.316;8.670;2023-04-03T03:58:35;-3274.40;91.20
46816;DHT22;32787;53.316;8.670;2023-04-03T04:01:04;-3274.70;91.30
46816;DHT22;32787;53.316;8.670;2023-04-03T04:03:30;-3274.80;91.10
46816;DHT22;32787;53.316;8.670;2023-04-03T04:05:56;-3275.00;91.20
46816;DHT22;32787;53.316;8.670;2023-04-03T04:08:22;-3275.00;91.00
46816;DHT22;32787;53.316;8.670;2023-04-03T04:10:48;-3274.80;90.80
46816;DHT22;32787;53.316;8.670;2023-04-03T04:13:13;-3274.60;90.90
46816;DHT22;32787;53.316;8.670;2023-04-03T04:15:39;-3274.50;91.10
46816;DHT22;32787;53.316;8.670;2023-04-03T04:18:05;-3274.60;91.30
46816;DHT22;32787;53.316;8.670;2023-04-03T04:20:31;-3274.50;91.20
46816;DHT22;32787;53.316;8.670;2023-04-03T04:22:56;-3274.50;91.30
46816;DHT22;32787;53.316;8.670;2023-04-03T04:25:22;-3274.50;91.40
46816;DHT22;32787;53.316;8.670;2023-04-03T04:27:48;-3274.50;91.50
46816;DHT22;32787;53.316;8.670;2023-04-03T04:30:14;-3274.40;91.50
46816;DHT22;32787;53.316;8.670;2023-04-03T04:32:40;-3274.60;91.60
46816;DHT22;32787;53.316;8.670;2023-04-03T04:35:06;-3274.60;91.70
46816;DHT22;32787;53.316;8.670;2023-04-03T04:37:32;-3274.80;91.60
46816;DHT22;32787;53.316;8.670;2023-04-03T04:39:58;-3274.80;91.60
46816;DHT22;32787;53.316;8.670;2023-04-03T04:42:23;-3274.80;91.50
46816;DHT22;32787;53.316;8.670;2023-04-03T04:44:49;-3274.80;91.50
46816;DHT22;32787;53.316;8.670;2023-04-03T04:47:15;-3274.90;91.50
46816;DHT22;32787;53.316;8.670;2023-04-03T04:49:41;-3274.90;91.40
46816;DHT22;32787;53.316;8.670;2023-04-03T04:52:06;-3274.90;91.50
46816;DHT22;32787;53.316;8.670;2023-04-03T04:54:32;-3274.90;91.40
46816;DHT22;32787;53.316;8.670;2023-04-03T04:56:58;-3274.80;91.40
46816;DHT22;32787;53.316;8.670;2023-04-03T04:59:23;-3274.80;91.60
46816;DHT22;32787;53.316;8.670;2023-04-03T05:01:49;-3274.90;91.80
46816;DHT22;32787;53.316;8.670;2023-04-03T05:04:15;-3275.00;91.60
46816;DHT22;32787;53.316;8.670;2023-04-03T05:06:41;-3275.10;91.50
46816;DHT22;32787;53.316;8.670;2023-04-03T05:09:07;-3275.00;91.40
46816;DHT22;32787;53.316;8.670;2023-04-03T05:11:32;-3275.10;91.40
46816;DHT22;32787;53.316;8.670;2023-04-03T05:13:58;-3275.10;91.20
46816;DHT22;32787;53.316;8.670;2023-04-03T05:16:24;-3275.10;91.20
46816;DHT22;32787;53.316;8.670;2023-04-03T05:18:50;-3275.00;91.20
46816;DHT22;32787;53.316;8.670;2023-04-03T05:21:16;-3275.00;91.40
46816;DHT22;32787;53.316;8.670;2023-04-03T05:23:43;-3275.00;91.50
46816;DHT22;32787;53.316;8.670;2023-04-03T05:26:09;-3275.00;91.60
46816;DHT22;32787;53.316;8.670;2023-04-03T05:28:35;-3274.90;91.60
46816;DHT22;32787;53.316;8.670;2023-04-03T05:31:00;-3274.90;91.60
46816;DHT22;32787;53.316;8.670;2023-04-03T05:33:26;-3274.90;91.70
46816;DHT22;32787;53.316;8.670;2023-04-03T05:35:53;-3275.00;91.70
46816;DHT22;32787;53.316;8.670;2023-04-03T05:38:19;-3274.90;91.80
46816;DHT22;32787;53.316;8.670;2023-04-03T05:40:45;-3274.90;91.90
46816;DHT22;32787;53.316;8.670;2023-04-03T05:43:11;-3275.10;92.00
46816;DHT22;32787;53.316;8.670;2023-04-03T05:45:36;-3275.00;91.90
46816;DHT22;32787;53.316;8.670;2023-04-03T05:48:02;-3275.20;92.10
46816;DHT22;32787;53.316;8.670;2023-04-03T05:50:27;-3275.30;92.10
46816;DHT22;32787;53.316;8.670;2023-04-03T05:52:57;-3275.50;92.10
46816;DHT22;32787;53.316;8.670;2023-04-03T05:55:23;-3275.50;91.90
46816;DHT22;32787;53.316;8.670;2023-04-03T05:57:49;-3275.60;91.90
46816;DHT22;32787;53.316;8.670;2023-04-03T06:00:15;-3275.70;91.90
46816;DHT22;32787;53.316;8.670;2023-04-03T06:02:41;-3275.80;91.70
46816;DHT22;32787;53.316;8.670;2023-04-03T06:05:07;-3275.90;91.60
46816;DHT22;32787;53.316;8.670;2023-04-03T06:07:34;-3275.90;91.40
46816;DHT22;32787;53.316;8.670;2023-04-03T06:10:01;-3276.00;91.30
46816;DHT22;32787;53.316;8.670;2023-04-03T06:12:27;-3276.00;91.10
46816;DHT22;32787;53.316;8.670;2023-04-03T06:14:54;-3275.90;91.10
46816;DHT22;32787;53.316;8.670;2023-04-03T06:17:20;-3275.90;91.00
46816;DHT22;32787;53.316;8.670;2023-04-03T06:19:46;-3275.90;91.10
46816;DHT22;32787;53.316;8.670;2023-04-03T06:22:11;-3276.10;91.20
46816;DHT22;32787;53.316;8.670;2023-04-03T06:24:37;-3276.20;91.10
46816;DHT22;32787;53.316;8.670;2023-04-03T06:27:03;-3276.20;91.10
46816;DHT22;32787;53.316;8.670;2023-04-03T06:29:29;-3276.30;91.10
46816;DHT22;32787;53.316;8.670;2023-04-03T06:31:55;-3276.30;91.10
46816;DHT22;32787;53.316;8.670;2023-04-03T06:34:20;-3276.40;91.00
46816;DHT22;32787;53.316;8.670;2023-04-03T06:36:46;-3276.50;91.10
46816;DHT22;32787;53.316;8.670;2023-04-03T06:39:15;-3276.70;91.00
46816;DHT22;32787;53.316;8.670;2023-04-03T06:41:41;0.10;90.60
46816;DHT22;32787;53.316;8.670;2023-04-03T06:44:07;0.20;89.60
46816;DHT22;32787;53.316;8.670;2023-04-03T06:46:37;0.30;89.10
46816;DHT22;32787;53.316;8.670;2023-04-03T06:49:02;0.30;88.80
46816;DHT22;32787;53.316;8.670;2023-04-03T06:51:30;0.40;88.90
46816;DHT22;32787;53.316;8.670;2023-04-03T06:53:57;0.60;88.30
46816;DHT22;32787;53.316;8.670;2023-04-03T06:56:24;0.70;87.80
46816;DHT22;32787;53.316;8.670;2023-04-03T06:58:51;0.80;87.50
46816;DHT22;32787;53.316;8.670;2023-04-03T07:01:18;1.00;87.40
46816;DHT22;32787;53.316;8.670;2023-04-03T07:03:45;1.00;87.10
46816;DHT22;32787;53.316;8.670;2023-04-03T07:06:13;1.10;87.30
46816;DHT22;32787;53.316;8.670;2023-04-03T07:08:39;1.20;86.70
46816;DHT22;32787;53.316;8.670;2023-04-03T07:11:06;1.40;86.30
46816;DHT22;32787;53.316;8.670;2023-04-03T07:13:32;1.50;85.80
46816;DHT22;32787;53.316;8.670;2023-04-03T07:15:58;1.60;84.90
46816;DHT22;32787;53.316;8.670;2023-04-03T07:18:24;1.90;84.30
46816;DHT22;32787;53.316;8.670;2023-04-03T07:20:50;2.10;84.30
46816;DHT22;32787;53.316;8.670;2023-04-03T07:23:16;2.30;83.90
46816;DHT22;32787;53.316;8.670;2023-04-03T07:25:43;2.60;82.90
46816;DHT22;32787;53.316;8.670;2023-04-03T07:28:09;2.80;81.70
46816;DHT22;32787;53.316;8.670;2023-04-03T07:30:41;2.80;80.90
46816;DHT22;32787;53.316;8.670;2023-04-03T07:33:07;2.90;80.60
46816;DHT22;32787;53.316;8.670;2023-04-03T07:35:33;3.10;79.50
46816;DHT22;32787;53.316;8.670;2023-04-03T07:37:58;3.40;77.10
46816;DHT22;32787;53.316;8.670;2023-04-03T07:40:25;3.70;75.10
46816;DHT22;32787;53.316;8.670;2023-04-03T07:42:50;3.90;71.70
46816;DHT22;32787;53.316;8.670;2023-04-03T07:45:16;4.10;72.10
46816;DHT22;32787;53.316;8.670;2023-04-03T07:47:42;4.40;72.00
46816;DHT22;32787;53.316;8.670;2023-04-03T07:50:08;4.60;70.40
46816;DHT22;32787;53.316;8.670;2023-04-03T07:52:34;4.90;68.30
46816;DHT22;32787;53.316;8.670;2023-04-03T07:54:59;5.30;68.10
46816;DHT22;32787;53.316;8.670;2023-04-03T07:57:25;5.60;64.90
46816;DHT22;32787;53.316;8.670;2023-04-03T07:59:50;5.90;64.60
46816;DHT22;32787;53.316;8.670;2023-04-03T08:02:16;5.90;59.50
46816;DHT22;32787;53.316;8.670;2023-04-03T08:04:42;6.10;58.00
46816;DHT22;32787;53.316;8.670;2023-04-03T08:07:07;6.00;60.00
46816;DHT22;32787;53.316;8.670;2023-04-03T08:09:33;5.40;56.30
46816;DHT22;32787;53.316;8.670;2023-04-03T08:11:58;5.20;58.50
46816;DHT22;32787;53.316;8.670;2023-04-03T08:14:24;5.10;58.80
46816;DHT22;32787;53.316;8.670;2023-04-03T08:16:50;5.00;56.80
46816;DHT22;32787;53.316;8.670;2023-04-03T08:19:16;4.90;58.10
46816;DHT22;32787;53.316;8.670;2023-04-03T08:21:43;5.30;58.20
46816;DHT22;32787;53.316;8.670;2023-04-03T08:24:09;5.60;58.70
46816;DHT22;32787;53.316;8.670;2023-04-03T08:26:35;5.30;59.90
46816;DHT22;32787;53.316;8.670;2023-04-03T08:29:01;5.20;60.90
46816;DHT22;32787;53.316;8.670;2023-04-03T08:31:27;5.20;61.90
46816;DHT22;32787;53.316;8.670;2023-04-03T08:33:53;5.20;58.90
46816;DHT22;32787;53.316;8.670;2023-04-03T08:36:21;5.10;59.30
46816;DHT22;32787;53.316;8.670;2023-04-03T08:38:48;5.30;59.00
46816;DHT22;32787;53.316;8.670;2023-04-03T08:49:41;6.10;55.50
46816;DHT22;32787;53.316;8.670;2023-04-03T08:52:17;6.50;51.60
46816;DHT22;32787;53.316;8.670;2023-04-03T08:54:56;6.90;49.80
46816;DHT22;32787;53.316;8.670;2023-04-03T08:57:34;7.00;49.20
46816;DHT22;32787;53.316;8.670;2023-04-03T09:00:23;6.80;51.90
46816;DHT22;32787;53.316;8.670;2023-04-03T09:02:50;6.50;50.00
46816;DHT22;32787;53.316;8.670;2023-04-03T09:05:23;6.30;52.50
46816;DHT22;32787;53.316;8.670;2023-04-03T09:10:44;6.50;52.90
46816;DHT22;32787;53.316;8.670;2023-04-03T09:15:57;6.40;50.60
46816;DHT22;32787;53.316;8.670;2023-04-03T09:18:32;6.40;50.30
46816;DHT22;32787;53.316;8.670;2023-04-03T09:21:22;6.30;53.70
46816;DHT22;32787;53.316;8.670;2023-04-03T09:23:52;6.40;51.00
46816;DHT22;32787;53.316;8.670;2023-04-03T09:26:41;6.10;49.90
46816;DHT22;32787;53.316;8.670;2023-04-03T09:29:17;6.10;51.30
46816;DHT22;32787;53.316;8.670;2023-04-03T09:31:44;6.20;49.90
46816;DHT22;32787;53.316;8.670;2023-04-03T09:34:36;6.10;50.50
46816;DHT22;32787;53.316;8.670;2023-04-03T09:37:04;6.10;49.40
46816;DHT22;32787;53.316;8.670;2023-04-03T09:39:33;6.20;52.10
46816;DHT22;32787;53.316;8.670;2023-04-03T09:42:21;6.10;50.00
46816;DHT22;32787;53.316;8.670;2023-04-03T09:45:02;6.10;49.90
46816;DHT22;32787;53.316;8.670;2023-04-03T09:47:30;6.10;52.30
46816;DHT22;32787;53.316;8.670;2023-04-03T09:52:44;6.40;50.10
46816;DHT22;32787;53.316;8.670;2023-04-03T09:55:19;6.40;51.00
46816;DHT22;32787;53.316;8.670;2023-04-03T09:57:53;6.50;52.20
46816;DHT22;32787;53.316;8.670;2023-04-03T10:00:22;6.40;49.70
46816;DHT22;32787;53.316;8.670;2023-04-03T10:02:50;6.40;50.00
46816;DHT22;32787;53.316;8.670;2023-04-03T10:05:37;6.30;47.50
46816;DHT22;32787;53.316;8.670;2023-04-03T10:10:47;6.40;49.80
46816;DHT22;32787;53.316;8.670;2023-04-03T10:13:18;6.40;47.60
46816;DHT22;32787;53.316;8.670;2023-04-03T10:16:07;6.70;48.70
46816;DHT22;32787;53.316;8.670;2023-04-03T10:19:02;6.80;47.00
46816;DHT22;32787;53.316;8.670;2023-04-03T10:24:25;6.90;46.70
46816;DHT22;32787;53.316;8.670;2023-04-03T10:27:35;7.20;48.20
46816;DHT22;32787;53.316;8.670;2023-04-03T10:30:23;7.20;45.20
46816;DHT22;32787;53.316;8.670;2023-04-03T10:33:08;7.20;46.30
46816;DHT22;32787;53.316;8.670;2023-04-03T10:41:22;7.40;45.20
46816;DHT22;32787;53.316;8.670;2023-04-03T10:44:11;7.10;43.40
46816;DHT22;32787;53.316;8.670;2023-04-03T10:46:55;6.90;45.30
46816;DHT22;32787;53.316;8.670;2023-04-03T10:55:35;7.20;48.20
46816;DHT22;32787;53.316;8.670;2023-04-03T10:58:03;7.40;44.70
46816;DHT22;32787;53.316;8.670;2023-04-03T11:01:02;7.40;44.50
46816;DHT22;32787;53.316;8.670;2023-04-03T11:03:35;7.30;44.00
46816;DHT22;32787;53.316;8.670;2023-04-03T11:06:05;7.40;43.70
46816;DHT22;32787;53.316;8.670;2023-04-03T11:08:51;7.70;43.40
46816;DHT22;32787;53.316;8.670;2023-04-03T11:11:25;7.70;41.40
46816;DHT22;32787;53.316;8.670;2023-04-03T11:14:02;7.60;43.00
46816;DHT22;32787;53.316;8.670;2023-04-03T11:16:31;7.70;41.90
46816;DHT22;32787;53.316;8.670;2023-04-03T11:19:20;7.70;44.10
46816;DHT22;32787;53.316;8.670;2023-04-03T11:24:36;8.10;44.00
46816;DHT22;32787;53.316;8.670;2023-04-03T11:27:05;7.90;43.40
46816;DHT22;32787;53.316;8.670;2023-04-03T11:29:35;8.10;44.40
46816;DHT22;32787;53.316;8.670;2023-04-03T11:34:56;7.90;42.00
46816;DHT22;32787;53.316;8.670;2023-04-03T11:37:38;7.50;43.60
46816;DHT22;32787;53.316;8.670;2023-04-03T11:40:23;7.60;44.70
46816;DHT22;32787;53.316;8.670;2023-04-03T11:42:55;7.50;45.40
46816;DHT22;32787;53.316;8.670;2023-04-03T11:45:33;7.70;45.80
46816;DHT22;32787;53.316;8.670;2023-04-03T11:53:54;7.50;45.90
46816;DHT22;32787;53.316;8.670;2023-04-03T12:04:20;7.60;44.00
46816;DHT22;32787;53.316;8.670;2023-04-03T12:09:54;7.70;43.80
46816;DHT22;32787;53.316;8.670;2023-04-03T12:12:28;7.80;46.60
46816;DHT22;32787;53.316;8.670;2023-04-03T12:14:54;7.70;41.60
46816;DHT22;32787;53.316;8.670;2023-04-03T12:17:27;7.60;42.90
46816;DHT22;32787;53.316;8.670;2023-04-03T12:19:53;7.60;41.80
46816;DHT22;32787;53.316;8.670;2023-04-03T12:22:20;7.40;43.20
46816;DHT22;32787;53.316;8.670;2023-04-03T12:24:51;7.40;43.10
46816;DHT22;32787;53.316;8.670;2023-04-03T12:27:24;7.60;45.90
46816;DHT22;32787;53.316;8.670;2023-04-03T12:30:01;7.90;45.80
46816;DHT22;32787;53.316;8.670;2023-04-03T12:35:14;8.30;44.40
46816;DHT22;32787;53.316;8.670;2023-04-03T12:46:22;7.70;42.50
46816;DHT22;32787;53.316;8.670;2023-04-03T12:51:43;8.00;43.30
46816;DHT22;32787;53.316;8.670;2023-04-03T12:54:16;8.10;42.90
46816;DHT22;32787;53.316;8.670;2023-04-03T12:56:43;8.20;44.60
46816;DHT22;32787;53.316;8.670;2023-04-03T12:59:23;8.10;46.20
46816;DHT22;32787;53.316;8.670;2023-04-03T13:02:00;8.20;43.30
46816;DHT22;32787;53.316;8.670;2023-04-03T13:04:31;8.10;44.60
46816;DHT22;32787;53.316;8.670;2023-04-03T13:06:57;8.10;43.40
46816;DHT22;32787;53.316;8.670;2023-04-03T13:09:27;8.30;43.00
46816;DHT22;32787;53.316;8.670;2023-04-03T13:14:24;8.30;43.40
46816;DHT22;32787;53.316;8.670;2023-04-03T13:19:30;8.30;43.30
46816;DHT22;32787;53.316;8.670;2023-04-03T13:22:03;8.30;42.60
46816;DHT22;32787;53.316;8.670;2023-04-03T13:24:32;8.40;43.40
46816;DHT22;32787;53.316;8.670;2023-04-03T13:26:59;8.40;40.20
46816;DHT22;32787;53.316;8.670;2023-04-03T13:29:31;8.20;40.10
46816;DHT22;32787;53.316;8.670;2023-04-03T13:31:58;8.10;41.20
46816;DHT22;32787;53.316;8.670;2023-04-03T13:34:27;8.40;43.30
46816;DHT22;32787;53.316;8.670;2023-04-03T13:41:48;8.40;44.40
46816;DHT22;32787;53.316;8.670;2023-04-03T13:44:24;8.50;43.70
46816;DHT22;32787;53.316;8.670;2023-04-03T13:47:21;8.40;40.60
46816;DHT22;32787;53.316;8.670;2023-04-03T13:50:12;8.30;41.50
46816;DHT22;32787;53.316;8.670;2023-04-03T13:52:44;8.60;43.70
46816;DHT22;32787;53.316;8.670;2023-04-03T13:55:22;8.60;42.70
46816;DHT22;32787;53.316;8.670;2023-04-03T13:57:55;8.50;41.00
46816;DHT22;32787;53.316;8.670;2023-04-03T14:03:25;8.30;41.70
46816;DHT22;32787;53.316;8.670;2023-04-03T14:05:51;8.10;42.60
46816;DHT22;32787;53.316;8.670;2023-04-03T14:08:18;8.20;43.20
46816;DHT22;32787;53.316;8.670;2023-04-03T14:10:44;8.20;42.30
46816;DHT22;32787;53.316;8.670;2023-04-03T14:13:14;8.20;43.60
46816;DHT22;32787;53.316;8.670;2023-04-03T14:15:41;8.50;44.40
46816;DHT22;32787;53.316;8.670;2023-04-03T14:18:12;8.80;40.90
46816;DHT22;32787;53.316;8.670;2023-04-03T14:20:37;8.90;42.10
46816;DHT22;32787;53.316;8.670;2023-04-03T14:23:03;9.20;40.00
46816;DHT22;32787;53.316;8.670;2023-04-03T14:25:29;9.10;40.50
46816;DHT22;32787;53.316;8.670;2023-04-03T14:27:55;9.20;40.30
46816;DHT22;32787;53.316;8.670;2023-04-03T14:30:24;10.40;39.60
46816;DHT22;32787;53.316;8.670;2023-04-03T14:32:52;11.30;36.60
46816;DHT22;32787;53.316;8.670;2023-04-03T14:35:18;11.20;37.10
46816;DHT22;32787;53.316;8.670;2023-04-03T14:37:45;10.20;37.10
46816;DHT22;32787;53.316;8.670;2023-04-03T14:40:18;10.00;38.70
46816;DHT22;32787;53.316;8.670;2023-04-03T14:42:44;10.30;38.60
46816;DHT22;32787;53.316;8.670;2023-04-03T14:45:13;10.20;37.30
46816;DHT22;32787;53.316;8.670;2023-04-03T14:47:52;9.80;37.60
46816;DHT22;32787;53.316;8.670;2023-04-03T14:50:23;9.10;39.80
46816;DHT22;32787;53.316;8.670;2023-04-03T14:52:49;9.30;41.90
46816;DHT22;32787;53.316;8.670;2023-04-03T14:55:17;9.80;39.80
46816;DHT22;32787;53.316;8.670;2023-04-03T14:57:43;10.00;41.20
46816;DHT22;32787;53.316;8.670;2023-04-03T15:00:20;10.00;41.30
46816;DHT22;32787;53.316;8.670;2023-04-03T15:02:47;10.10;41.50
46816;DHT22;32787;53.316;8.670;2023-04-03T15:05:13;10.40;42.80
46816;DHT22;32787;53.316;8.670;2023-04-03T15:07:47;10.60;38.40
46816;DHT22;32787;53.316;8.670;2023-04-03T15:10:22;10.20;41.40
46816;DHT22;32787;53.316;8.670;2023-04-03T15:12:49;9.50;44.50
46816;DHT22;32787;53.316;8.670;2023-04-03T15:15:17;8.60;43.80
46816;DHT22;32787;53.316;8.670;2023-04-03T15:17:44;8.20;45.80
46816;DHT22;32787;53.316;8.670;2023-04-03T15:20:21;8.00;43.70
46816;DHT22;32787;53.316;8.670;2023-04-03T15:22:47;8.90;42.60
46816;DHT22;32787;53.316;8.670;2023-04-03T15:25:13;9.80;40.70
46816;DHT22;32787;53.316;8.670;2023-04-03T15:27:39;10.30;40.30
46816;DHT22;32787;53.316;8.670;2023-04-03T15:30:07;10.20;41.70
46816;DHT22;32787;53.316;8.670;2023-04-03T15:32:33;10.00;39.80
46816;DHT22;32787;53.316;8.670;2023-04-03T15:35:00;10.10;40.90
46816;DHT22;32787;53.316;8.670;2023-04-03T15:37:26;10.20;41.80
46816;DHT22;32787;53.316;8.670;2023-04-03T15:39:52;10.10;40.80
46816;DHT22;32787;53.316;8.670;2023-04-03T15:42:17;10.60;39.40
46816;DHT22;32787;53.316;8.670;2023-04-03T15:44:43;10.80;39.90
46816;DHT22;32787;53.316;8.670;2023-04-03T15:47:09;10.20;40.20
46816;DHT22;32787;53.316;8.670;2023-04-03T15:49:35;10.30;40.10
46816;DHT22;32787;53.316;8.670;2023-04-03T15:52:01;10.60;41.20
46816;DHT22;32787;53.316;8.670;2023-04-03T15:54:27;10.80;39.80
46816;DHT22;32787;53.316;8.670;2023-04-03T15:56:55;10.60;39.60
46816;DHT22;32787;53.316;8.670;2023-04-03T15:59:21;9.50;40.30
46816;DHT22;32787;53.316;8.670;2023-04-03T16:01:48;8.60;43.10
46816;DHT22;32787;53.316;8.670;2023-04-03T16:04:14;8.30;45.40
46816;DHT22;32787;53.316;8.670;2023-04-03T16:06:40;8.30;46.10
46816;DHT22;32787;53.316;8.670;2023-04-03T16:09:06;8.30;46.50
46816;DHT22;32787;53.316;8.670;2023-04-03T16:11:33;8.50;44.20
46816;DHT22;32787;53.316;8.670;2023-04-03T16:14:00;8.70;44.00
46816;DHT22;32787;53.316;8.670;2023-04-03T16:16:26;8.70;44.20
46816;DHT22;32787;53.316;8.670;2023-04-03T16:18:54;9.00;45.20
46816;DHT22;32787;53.316;8.670;2023-04-03T16:21:20;9.10;42.60
46816;DHT22;32787;53.316;8.670;2023-04-03T16:23:47;9.30;43.60
46816;DHT22;32787;53.316;8.670;2023-04-03T16:26:12;9.30;44.50
46816;DHT22;32787;53.316;8.670;2023-04-03T16:28:38;9.00;45.10
46816;DHT22;32787;53.316;8.670;2023-04-03T16:31:05;8.60;46.00
46816;DHT22;32787;53.316;8.670;2023-04-03T16:33:31;8.20;45.30
46816;DHT22;32787;53.316;8.670;2023-04-03T16:35:57;7.90;46.50
46816;DHT22;32787;53.316;8.670;2023-04-03T16:38:22;7.80;47.00
46816;DHT22;32787;53.316;8.670;2023-04-03T16:40:48;7.60;46.90
46816;DHT22;32787;53.316;8.670;2023-04-03T16:43:15;7.50;48.60
46816;DHT22;32787;53.316;8.670;2023-04-03T16:45:41;7.50;48.70
46816;DHT22;32787;53.316;8.670;2023-04-03T16:48:07;7.40;48.10
46816;DHT22;32787;53.316;8.670;2023-04-03T16:50:33;7.50;48.20
46816;DHT22;32787;53.316;8.670;2023-04-03T16:52:58;7.40;48.70
46816;DHT22;32787;53.316;8.670;2023-04-03T16:55:24;7.40;49.10
46816;DHT22;32787;53.316;8.670;2023-04-03T16:57:50;7.40;48.70